SeattleWeather.com

KSEA - Seattle/Metro, Washington, USA
Distance from station: SSW 24mi, 39km
Updated: Wed, 15-Aug-2018 11:53pm PDT
Clear
Clear
 Wind from W
Wind: W 5 mph , 7 km/h
Temperature: 66°F , 19°C
Dew Point: 54°F , 12°C
Humidity: 64%
Barometer: 29.95 inHg , 1014.2 hPa
Clouds: Clear
Visibility: 7 miles , 11 km
2018/08/16 06:53 KSEA 160653Z 27004KT 7SM CLR 19/12 A2995 RMK AO2 SLP145 T01940117
KBFI - Seattle/Boeing, Washington, USA
Distance from station: SSW 18mi, 29km
Updated: Wed, 15-Aug-2018 11:53pm PDT
Smoke, Clear
Smoke, Clear
 Wind from calm
Wind: Calm
Temperature: 66°F , 19°C
Dew Point: 54°F , 12°C
Humidity: 64%
Barometer: 29.93 inHg , 1013.5 hPa
Summary: Smoke
Clouds: Clear
Visibility: 8 miles , 13 km
2018/08/16 06:53 KBFI 160653Z 00000KT 8SM FU CLR 19/12 A2993 RMK AO2 SLP134 T01940122
NWS Forecast for 3 Miles NNW Boulevard Park, WA
National Weather Service Forecast for: 3 Miles NNW Boulevard Park, WA
Issued by: National Weather Service Seattle/Tacoma, WA
Updated: Wed, 15-Aug-2018 9:52pm PDT
 
  Thursday

Thursday: Areas Of Smoke then Mostly Sunny
Areas Of Smoke then Mostly Sunny
Friday

Friday: Mostly Sunny
Mostly Sunny
Saturday

Saturday: Sunny
Sunny
Sunday

Sunday: Sunny
Sunny
Monday

Monday: Sunny
Sunny
Tuesday

Tuesday: Sunny
Sunny
Wednesday

Wednesday: Sunny
Sunny
  Hi 78 °F Hi 76 °F Hi 78 °F Hi 80 °F Hi 83 °F Hi 85 °F Hi 80 °F
 
Overnight

Overnight: Areas Of Smoke
Areas Of Smoke
Thursday
Night
Thursday Night: Partly Cloudy
Partly Cloudy
Friday
Night
Friday Night: Mostly Clear
Mostly Clear
Saturday
Night
Saturday Night: Mostly Clear
Mostly Clear
Sunday
Night
Sunday Night: Mostly Clear
Mostly Clear
Monday
Night
Monday Night: Mostly Clear
Mostly Clear
Tuesday
Night
Tuesday Night: Mostly Clear
Mostly Clear
 
Lo 59 °F Lo 58 °F Lo 57 °F Lo 59 °F Lo 60 °F Lo 61 °F Lo 60 °F  

Special Weather Statement
 

Overnight
 
Areas of smoke. Partly cloudy, with a low around 59. East wind 5 to 9 mph.
Thursday
 
Areas of smoke before 11am. Mostly sunny, with a high near 78. North northwest wind 3 to 12 mph.
Thursday Night
 
Partly cloudy, with a low around 58. Northeast wind 6 to 15 mph.
Friday
 
Mostly sunny, with a high near 76. North wind around 8 mph.
Friday Night
 
Mostly clear, with a low around 57. North northeast wind 2 to 13 mph.
Saturday
 
Sunny, with a high near 78.
Saturday Night
 
Mostly clear, with a low around 59.
Sunday
 
Sunny, with a high near 80.
Sunday Night
 
Mostly clear, with a low around 60.
Monday
 
Sunny, with a high near 83.
Monday Night
 
Mostly clear, with a low around 61.
Tuesday
 
Sunny, with a high near 85.
Tuesday Night
 
Mostly clear, with a low around 60.
Wednesday
 
Sunny, with a high near 80.

 

Forecast from NOAA-NWS for 3 Miles NNW Boulevard Park, WA.